sensor_id;sensor_type;location;lat;lon;timestamp;pressure;altitude;pressure_sealevel;temperature;humidity
39411;BME280;26579;43.238;23.124;2023-07-24T00:01:19;97120.53;;;21.83;42.31
39411;BME280;26579;43.238;23.124;2023-07-24T00:03:45;97111.34;;;21.79;42.72
39411;BME280;26579;43.238;23.124;2023-07-24T00:06:11;97107.69;;;21.80;41.64
39411;BME280;26579;43.238;23.124;2023-07-24T00:11:03;97109.91;;;21.77;41.47
39411;BME280;26579;43.238;23.124;2023-07-24T00:13:28;97102.72;;;21.70;42.21
39411;BME280;26579;43.238;23.124;2023-07-24T00:15:54;97093.63;;;21.58;42.42
39411;BME280;26579;43.238;23.124;2023-07-24T00:18:20;97098.41;;;21.69;41.45
39411;BME280;26579;43.238;23.124;2023-07-24T00:20:45;97087.00;;;21.69;40.64
39411;BME280;26579;43.238;23.124;2023-07-24T00:23:11;97107.88;;;21.79;40.32
39411;BME280;26579;43.238;23.124;2023-07-24T00:25:37;97108.06;;;21.77;39.91
39411;BME280;26579;43.238;23.124;2023-07-24T00:28:03;97110.47;;;21.72;40.30
39411;BME280;26579;43.238;23.124;2023-07-24T00:30:28;97096.34;;;21.65;40.02
39411;BME280;26579;43.238;23.124;2023-07-24T00:32:54;97095.97;;;21.68;39.63
39411;BME280;26579;43.238;23.124;2023-07-24T00:35:20;97090.63;;;21.61;39.66
39411;BME280;26579;43.238;23.124;2023-07-24T00:37:45;97111.09;;;21.74;40.13
39411;BME280;26579;43.238;23.124;2023-07-24T00:40:11;97107.50;;;21.82;40.55
39411;BME280;26579;43.238;23.124;2023-07-24T00:42:38;97097.66;;;21.76;40.73
39411;BME280;26579;43.238;23.124;2023-07-24T00:45:04;97108.50;;;21.81;40.78
39411;BME280;26579;43.238;23.124;2023-07-24T00:47:31;97103.56;;;21.78;40.98
39411;BME280;26579;43.238;23.124;2023-07-24T00:49:57;97101.19;;;21.83;40.49
39411;BME280;26579;43.238;23.124;2023-07-24T00:52:23;97105.69;;;21.89;40.68
39411;BME280;26579;43.238;23.124;2023-07-24T00:54:50;97101.25;;;21.96;40.27
39411;BME280;26579;43.238;23.124;2023-07-24T00:57:16;97088.38;;;21.93;40.15
39411;BME280;26579;43.238;23.124;2023-07-24T00:59:44;97088.84;;;21.97;39.69
39411;BME280;26579;43.238;23.124;2023-07-24T01:02:11;97095.13;;;21.96;39.61
39411;BME280;26579;43.238;23.124;2023-07-24T01:04:38;97090.03;;;21.94;39.90
39411;BME280;26579;43.238;23.124;2023-07-24T01:09:30;97090.16;;;21.79;40.15
39411;BME280;26579;43.238;23.124;2023-07-24T01:11:59;97089.56;;;21.84;40.30
39411;BME280;26579;43.238;23.124;2023-07-24T01:14:46;97090.16;;;21.79;40.21
39411;BME280;26579;43.238;23.124;2023-07-24T01:17:14;97069.44;;;21.61;40.33
39411;BME280;26579;43.238;23.124;2023-07-24T01:19:42;97084.22;;;21.77;40.52
39411;BME280;26579;43.238;23.124;2023-07-24T01:22:14;97085.84;;;21.78;40.31
39411;BME280;26579;43.238;23.124;2023-07-24T01:27:30;97081.69;;;21.69;40.83
39411;BME280;26579;43.238;23.124;2023-07-24T01:29:55;97065.38;;;21.65;41.00
39411;BME280;26579;43.238;23.124;2023-07-24T01:32:21;97071.91;;;21.69;40.29
39411;BME280;26579;43.238;23.124;2023-07-24T01:34:47;97062.72;;;21.65;39.53
39411;BME280;26579;43.238;23.124;2023-07-24T01:37:14;97074.94;;;21.66;40.77
39411;BME280;26579;43.238;23.124;2023-07-24T01:39:40;97063.53;;;21.66;40.89
39411;BME280;26579;43.238;23.124;2023-07-24T01:42:07;97066.22;;;21.73;40.34
39411;BME280;26579;43.238;23.124;2023-07-24T01:44:33;97076.13;;;21.85;41.25
39411;BME280;26579;43.238;23.124;2023-07-24T01:46:59;97072.28;;;21.88;41.42
39411;BME280;26579;43.238;23.124;2023-07-24T01:49:25;97060.25;;;21.64;42.35
39411;BME280;26579;43.238;23.124;2023-07-24T01:51:50;97067.06;;;21.73;42.69
39411;BME280;26579;43.238;23.124;2023-07-24T01:54:16;97070.16;;;21.77;42.72
39411;BME280;26579;43.238;23.124;2023-07-24T01:56:42;97066.53;;;21.84;41.86
39411;BME280;26579;43.238;23.124;2023-07-24T01:59:08;97075.78;;;21.95;41.51
39411;BME280;26579;43.238;23.124;2023-07-24T02:01:33;97068.59;;;21.89;41.72
39411;BME280;26579;43.238;23.124;2023-07-24T02:03:59;97074.75;;;21.96;41.30
39411;BME280;26579;43.238;23.124;2023-07-24T02:06:24;97061.03;;;21.86;41.45
39411;BME280;26579;43.238;23.124;2023-07-24T02:08:50;97066.91;;;21.81;41.51
39411;BME280;26579;43.238;23.124;2023-07-24T02:11:16;97063.03;;;21.77;41.75
39411;BME280;26579;43.238;23.124;2023-07-24T02:13:45;97055.63;;;21.73;41.81
39411;BME280;26579;43.238;23.124;2023-07-24T02:16:12;97070.94;;;21.70;41.76
39411;BME280;26579;43.238;23.124;2023-07-24T02:18:42;97074.78;;;21.68;41.93
39411;BME280;26579;43.238;23.124;2023-07-24T02:21:08;97078.00;;;21.63;42.54
39411;BME280;26579;43.238;23.124;2023-07-24T02:23:33;97062.06;;;21.57;42.07
39411;BME280;26579;43.238;23.124;2023-07-24T02:25:59;97072.44;;;21.58;41.97
39411;BME280;26579;43.238;23.124;2023-07-24T02:28:25;97079.97;;;21.55;42.04
39411;BME280;26579;43.238;23.124;2023-07-24T02:30:51;97071.41;;;21.53;42.04
39411;BME280;26579;43.238;23.124;2023-07-24T02:33:17;97091.06;;;21.65;41.98
39411;BME280;26579;43.238;23.124;2023-07-24T02:35:43;97085.56;;;21.66;42.20
39411;BME280;26579;43.238;23.124;2023-07-24T02:38:09;97078.63;;;21.65;41.23
39411;BME280;26579;43.238;23.124;2023-07-24T02:40:35;97081.91;;;21.67;41.26
39411;BME280;26579;43.238;23.124;2023-07-24T02:43:01;97079.88;;;21.69;41.56
39411;BME280;26579;43.238;23.124;2023-07-24T02:45:27;97077.69;;;21.73;41.00
39411;BME280;26579;43.238;23.124;2023-07-24T02:47:52;97074.44;;;21.78;40.26
39411;BME280;26579;43.238;23.124;2023-07-24T02:50:18;97075.06;;;21.80;40.35
39411;BME280;26579;43.238;23.124;2023-07-24T02:52:44;97063.81;;;21.78;39.71
39411;BME280;26579;43.238;23.124;2023-07-24T02:55:10;97072.03;;;21.83;40.43
39411;BME280;26579;43.238;23.124;2023-07-24T02:57:35;97065.50;;;21.79;40.55
39411;BME280;26579;43.238;23.124;2023-07-24T03:00:01;97069.72;;;21.73;40.41
39411;BME280;26579;43.238;23.124;2023-07-24T03:02:28;97062.16;;;21.70;41.04
39411;BME280;26579;43.238;23.124;2023-07-24T03:04:53;97072.81;;;21.77;40.74
39411;BME280;26579;43.238;23.124;2023-07-24T03:07:19;97075.44;;;21.77;41.71
39411;BME280;26579;43.238;23.124;2023-07-24T03:09:46;97081.19;;;21.80;41.25
39411;BME280;26579;43.238;23.124;2023-07-24T03:12:12;97074.03;;;21.81;40.70
39411;BME280;26579;43.238;23.124;2023-07-24T03:14:37;97059.13;;;21.73;40.30
39411;BME280;26579;43.238;23.124;2023-07-24T03:17:03;97066.34;;;21.86;40.26
39411;BME280;26579;43.238;23.124;2023-07-24T03:19:29;97077.25;;;22.04;40.51
39411;BME280;26579;43.238;23.124;2023-07-24T03:21:54;97078.72;;;22.13;41.24
39411;BME280;26579;43.238;23.124;2023-07-24T03:24:20;97071.16;;;22.10;41.34
39411;BME280;26579;43.238;23.124;2023-07-24T03:26:46;97068.91;;;22.07;41.90
39411;BME280;26579;43.238;23.124;2023-07-24T03:29:11;97077.78;;;22.21;41.41
39411;BME280;26579;43.238;23.124;2023-07-24T03:31:37;97081.91;;;22.24;41.83
39411;BME280;26579;43.238;23.124;2023-07-24T03:34:03;97074.72;;;22.18;40.43
39411;BME280;26579;43.238;23.124;2023-07-24T03:36:28;97087.19;;;22.24;40.89
39411;BME280;26579;43.238;23.124;2023-07-24T03:38:54;97084.13;;;22.20;41.28
39411;BME280;26579;43.238;23.124;2023-07-24T03:41:20;97084.38;;;22.32;40.99
39411;BME280;26579;43.238;23.124;2023-07-24T03:43:46;97089.28;;;22.28;41.70
39411;BME280;26579;43.238;23.124;2023-07-24T03:46:11;97086.16;;;22.25;41.95
39411;BME280;26579;43.238;23.124;2023-07-24T03:48:37;97083.91;;;22.22;42.47
39411;BME280;26579;43.238;23.124;2023-07-24T03:51:03;97076.59;;;22.24;42.79
39411;BME280;26579;43.238;23.124;2023-07-24T03:53:28;97082.78;;;22.37;42.57
39411;BME280;26579;43.238;23.124;2023-07-24T03:55:54;97091.34;;;22.40;43.36
39411;BME280;26579;43.238;23.124;2023-07-24T03:58:20;97084.63;;;22.37;43.73
39411;BME280;26579;43.238;23.124;2023-07-24T04:00:46;97094.22;;;22.45;43.95
39411;BME280;26579;43.238;23.124;2023-07-24T04:03:12;97092.44;;;22.52;43.48
39411;BME280;26579;43.238;23.124;2023-07-24T04:05:37;97076.72;;;22.50;43.96
39411;BME280;26579;43.238;23.124;2023-07-24T04:08:03;97083.88;;;22.56;44.86
39411;BME280;26579;43.238;23.124;2023-07-24T04:10:29;97080.41;;;22.49;45.31
39411;BME280;26579;43.238;23.124;2023-07-24T04:12:55;97082.50;;;22.60;45.37
39411;BME280;26579;43.238;23.124;2023-07-24T04:15:20;97083.69;;;22.58;44.83
39411;BME280;26579;43.238;23.124;2023-07-24T04:17:46;97086.13;;;22.59;45.08
39411;BME280;26579;43.238;23.124;2023-07-24T04:20:12;97079.19;;;22.58;45.09
39411;BME280;26579;43.238;23.124;2023-07-24T04:22:37;97074.13;;;22.64;45.20
39411;BME280;26579;43.238;23.124;2023-07-24T04:25:03;97085.16;;;22.67;46.23
39411;BME280;26579;43.238;23.124;2023-07-24T04:27:29;97078.63;;;22.63;45.81
39411;BME280;26579;43.238;23.124;2023-07-24T04:29:55;97088.00;;;22.66;46.21
39411;BME280;26579;43.238;23.124;2023-07-24T04:32:20;97088.63;;;22.74;45.92
39411;BME280;26579;43.238;23.124;2023-07-24T04:34:46;97080.50;;;22.76;46.98
39411;BME280;26579;43.238;23.124;2023-07-24T04:37:12;97080.09;;;22.79;46.62
39411;BME280;26579;43.238;23.124;2023-07-24T04:39:40;97075.78;;;22.71;47.15
39411;BME280;26579;43.238;23.124;2023-07-24T04:42:06;97085.41;;;22.79;46.82
39411;BME280;26579;43.238;23.124;2023-07-24T04:44:32;97074.38;;;22.75;47.47
39411;BME280;26579;43.238;23.124;2023-07-24T04:46:58;97091.13;;;22.89;47.85
39411;BME280;26579;43.238;23.124;2023-07-24T04:49:24;97096.88;;;22.93;47.88
39411;BME280;26579;43.238;23.124;2023-07-24T04:51:50;97098.16;;;23.03;47.63
39411;BME280;26579;43.238;23.124;2023-07-24T04:54:17;97103.47;;;23.03;45.44
39411;BME280;26579;43.238;23.124;2023-07-24T04:56:43;97091.84;;;23.11;46.56
39411;BME280;26579;43.238;23.124;2023-07-24T04:59:08;97091.66;;;23.13;47.35
39411;BME280;26579;43.238;23.124;2023-07-24T05:01:34;97100.63;;;23.18;48.12
39411;BME280;26579;43.238;23.124;2023-07-24T05:04:00;97089.00;;;23.19;48.36
39411;BME280;26579;43.238;23.124;2023-07-24T05:06:26;97101.66;;;23.24;48.79
39411;BME280;26579;43.238;23.124;2023-07-24T05:08:52;97106.97;;;23.17;49.85
39411;BME280;26579;43.238;23.124;2023-07-24T05:11:18;97112.69;;;23.21;49.84
39411;BME280;26579;43.238;23.124;2023-07-24T05:13:44;97113.31;;;23.30;49.90
39411;BME280;26579;43.238;23.124;2023-07-24T05:16:09;97109.44;;;23.25;49.69
39411;BME280;26579;43.238;23.124;2023-07-24T05:18:35;97109.88;;;23.42;50.01
39411;BME280;26579;43.238;23.124;2023-07-24T05:21:01;97095.19;;;23.60;48.93
39411;BME280;26579;43.238;23.124;2023-07-24T05:23:27;97106.41;;;23.55;49.75
39411;BME280;26579;43.238;23.124;2023-07-24T05:26:05;97103.56;;;23.63;50.27
39411;BME280;26579;43.238;23.124;2023-07-24T05:28:32;97111.34;;;23.85;49.68
39411;BME280;26579;43.238;23.124;2023-07-24T05:31:03;97101.94;;;23.95;49.29
39411;BME280;26579;43.238;23.124;2023-07-24T05:33:38;97099.66;;;24.12;49.73
39411;BME280;26579;43.238;23.124;2023-07-24T05:36:05;97110.69;;;24.29;49.89
39411;BME280;26579;43.238;23.124;2023-07-24T05:38:31;97110.06;;;24.47;51.45
39411;BME280;26579;43.238;23.124;2023-07-24T05:40:57;97098.16;;;24.56;52.51
39411;BME280;26579;43.238;23.124;2023-07-24T05:43:23;97110.34;;;24.77;53.62
39411;BME280;26579;43.238;23.124;2023-07-24T05:45:50;97108.63;;;24.90;53.95
39411;BME280;26579;43.238;23.124;2023-07-24T05:48:16;97105.97;;;24.96;53.47
39411;BME280;26579;43.238;23.124;2023-07-24T05:50:42;97111.59;;;25.13;53.75
39411;BME280;26579;43.238;23.124;2023-07-24T05:53:07;97108.56;;;25.16;50.76
39411;BME280;26579;43.238;23.124;2023-07-24T05:55:33;97106.72;;;25.17;49.95
39411;BME280;26579;43.238;23.124;2023-07-24T05:57:59;97107.28;;;25.25;49.57
39411;BME280;26579;43.238;23.124;2023-07-24T06:00:25;97112.88;;;25.42;50.08
39411;BME280;26579;43.238;23.124;2023-07-24T06:02:50;97114.69;;;25.48;46.78
39411;BME280;26579;43.238;23.124;2023-07-24T06:05:16;97109.09;;;25.57;46.75
39411;BME280;26579;43.238;23.124;2023-07-24T06:07:44;97111.53;;;25.58;47.25
39411;BME280;26579;43.238;23.124;2023-07-24T06:10:10;97106.75;;;25.67;47.85
39411;BME280;26579;43.238;23.124;2023-07-24T06:12:36;97101.88;;;25.64;45.17
39411;BME280;26579;43.238;23.124;2023-07-24T06:15:05;97104.31;;;25.65;45.51
39411;BME280;26579;43.238;23.124;2023-07-24T06:17:32;97092.13;;;25.76;45.29
39411;BME280;26579;43.238;23.124;2023-07-24T06:19:58;97099.22;;;25.89;43.22
39411;BME280;26579;43.238;23.124;2023-07-24T06:22:24;97088.72;;;25.94;43.75
39411;BME280;26579;43.238;23.124;2023-07-24T06:24:50;97092.94;;;26.02;43.87
39411;BME280;26579;43.238;23.124;2023-07-24T06:27:16;97080.22;;;26.04;44.35
39411;BME280;26579;43.238;23.124;2023-07-24T06:29:44;97084.97;;;26.20;44.09
39411;BME280;26579;43.238;23.124;2023-07-24T06:32:11;97085.41;;;26.35;42.41
39411;BME280;26579;43.238;23.124;2023-07-24T06:34:41;97087.75;;;26.50;42.83
39411;BME280;26579;43.238;23.124;2023-07-24T06:37:07;97081.72;;;26.55;42.18
39411;BME280;26579;43.238;23.124;2023-07-24T06:39:34;97078.09;;;26.68;42.36
39411;BME280;26579;43.238;23.124;2023-07-24T06:42:00;97074.88;;;26.77;42.87
39411;BME280;26579;43.238;23.124;2023-07-24T06:44:26;97080.13;;;26.84;41.24
39411;BME280;26579;43.238;23.124;2023-07-24T06:46:52;97081.66;;;26.80;40.77
39411;BME280;26579;43.238;23.124;2023-07-24T06:49:22;97073.78;;;26.85;41.59
39411;BME280;26579;43.238;23.124;2023-07-24T06:51:48;97071.59;;;26.94;42.06
39411;BME280;26579;43.238;23.124;2023-07-24T06:54:15;97070.94;;;27.10;41.91
39411;BME280;26579;43.238;23.124;2023-07-24T06:56:45;97067.00;;;27.13;42.24
39411;BME280;26579;43.238;23.124;2023-07-24T06:59:11;97072.28;;;27.19;41.63
39411;BME280;26579;43.238;23.124;2023-07-24T07:01:40;97072.78;;;27.28;42.21
39411;BME280;26579;43.238;23.124;2023-07-24T07:04:06;97062.81;;;27.35;42.71
39411;BME280;26579;43.238;23.124;2023-07-24T07:06:32;97066.44;;;27.52;41.60
39411;BME280;26579;43.238;23.124;2023-07-24T07:08:59;97070.97;;;27.52;40.70
39411;BME280;26579;43.238;23.124;2023-07-24T07:11:28;97064.56;;;27.53;40.25
39411;BME280;26579;43.238;23.124;2023-07-24T07:13:58;97061.19;;;27.58;40.09
39411;BME280;26579;43.238;23.124;2023-07-24T07:16:24;97067.41;;;27.70;40.14
39411;BME280;26579;43.238;23.124;2023-07-24T07:18:53;97067.66;;;27.80;40.16
39411;BME280;26579;43.238;23.124;2023-07-24T07:21:19;97063.09;;;27.81;39.52
39411;BME280;26579;43.238;23.124;2023-07-24T07:23:46;97063.69;;;27.94;39.88
39411;BME280;26579;43.238;23.124;2023-07-24T07:26:12;97068.69;;;28.03;39.26
39411;BME280;26579;43.238;23.124;2023-07-24T07:28:38;97051.84;;;27.90;38.95
39411;BME280;26579;43.238;23.124;2023-07-24T07:31:04;97060.09;;;28.01;39.14
39411;BME280;26579;43.238;23.124;2023-07-24T07:33:30;97058.94;;;28.08;38.22
39411;BME280;26579;43.238;23.124;2023-07-24T07:35:57;97058.56;;;28.16;38.88
39411;BME280;26579;43.238;23.124;2023-07-24T07:38:25;97056.34;;;28.25;38.11
39411;BME280;26579;43.238;23.124;2023-07-24T07:40:55;97053.41;;;28.38;38.41
39411;BME280;26579;43.238;23.124;2023-07-24T07:43:21;97044.56;;;28.50;37.73
39411;BME280;26579;43.238;23.124;2023-07-24T07:45:47;97051.41;;;28.57;36.51
39411;BME280;26579;43.238;23.124;2023-07-24T07:48:14;97054.16;;;28.74;36.98
39411;BME280;26579;43.238;23.124;2023-07-24T07:50:42;97050.31;;;28.70;36.98
39411;BME280;26579;43.238;23.124;2023-07-24T07:53:10;97055.16;;;28.85;36.84
39411;BME280;26579;43.238;23.124;2023-07-24T07:55:36;97052.78;;;28.88;36.23
39411;BME280;26579;43.238;23.124;2023-07-24T07:58:02;97052.13;;;28.81;36.47
39411;BME280;26579;43.238;23.124;2023-07-24T08:00:29;97059.41;;;28.98;37.16
39411;BME280;26579;43.238;23.124;2023-07-24T08:02:56;97043.72;;;29.18;37.88
39411;BME280;26579;43.238;23.124;2023-07-24T08:05:25;97051.22;;;29.33;37.76
39411;BME280;26579;43.238;23.124;2023-07-24T08:07:58;97043.50;;;29.37;35.87
39411;BME280;26579;43.238;23.124;2023-07-24T08:10:24;97043.69;;;29.47;35.17
39411;BME280;26579;43.238;23.124;2023-07-24T08:12:50;97048.28;;;29.51;34.01
39411;BME280;26579;43.238;23.124;2023-07-24T08:15:17;97049.63;;;29.66;34.05
39411;BME280;26579;43.238;23.124;2023-07-24T08:17:43;97043.78;;;29.69;34.33
39411;BME280;26579;43.238;23.124;2023-07-24T08:20:09;97037.09;;;29.71;34.16
39411;BME280;26579;43.238;23.124;2023-07-24T08:22:38;97046.53;;;29.74;33.47
39411;BME280;26579;43.238;23.124;2023-07-24T08:25:04;97039.53;;;29.73;35.03
39411;BME280;26579;43.238;23.124;2023-07-24T08:27:31;97045.47;;;29.75;33.67
39411;BME280;26579;43.238;23.124;2023-07-24T08:29:57;97030.53;;;29.79;34.78
39411;BME280;26579;43.238;23.124;2023-07-24T08:32:23;97020.69;;;29.85;34.96
39411;BME280;26579;43.238;23.124;2023-07-24T08:34:50;97038.47;;;29.91;35.71
39411;BME280;26579;43.238;23.124;2023-07-24T08:37:18;97032.66;;;29.99;34.59
39411;BME280;26579;43.238;23.124;2023-07-24T08:39:47;97019.31;;;30.04;33.76
39411;BME280;26579;43.238;23.124;2023-07-24T08:42:13;97024.69;;;30.04;33.98
39411;BME280;26579;43.238;23.124;2023-07-24T08:44:40;97021.88;;;30.16;32.90
39411;BME280;26579;43.238;23.124;2023-07-24T08:47:10;97019.59;;;30.25;33.16
39411;BME280;26579;43.238;23.124;2023-07-24T08:49:37;97020.75;;;30.29;32.21
39411;BME280;26579;43.238;23.124;2023-07-24T08:52:05;97030.59;;;30.45;30.74
39411;BME280;26579;43.238;23.124;2023-07-24T08:54:32;97022.59;;;30.50;30.28
39411;BME280;26579;43.238;23.124;2023-07-24T08:57:02;97016.28;;;30.61;30.12
39411;BME280;26579;43.238;23.124;2023-07-24T08:59:27;97028.72;;;30.67;28.46
39411;BME280;26579;43.238;23.124;2023-07-24T09:01:53;97027.19;;;30.77;28.34
39411;BME280;26579;43.238;23.124;2023-07-24T09:04:19;97017.09;;;30.84;28.00
39411;BME280;26579;43.238;23.124;2023-07-24T09:06:45;97021.69;;;30.88;30.34
39411;BME280;26579;43.238;23.124;2023-07-24T09:09:14;97031.78;;;31.03;31.07
39411;BME280;26579;43.238;23.124;2023-07-24T09:11:51;97022.72;;;31.09;29.88
39411;BME280;26579;43.238;23.124;2023-07-24T09:14:27;97018.00;;;31.22;30.31
39411;BME280;26579;43.238;23.124;2023-07-24T09:17:04;97018.41;;;31.35;29.38
39411;BME280;26579;43.238;23.124;2023-07-24T09:19:31;97023.41;;;31.54;31.03
39411;BME280;26579;43.238;23.124;2023-07-24T09:22:14;97026.19;;;31.69;29.00
39411;BME280;26579;43.238;23.124;2023-07-24T09:24:57;97013.63;;;31.80;29.93
39411;BME280;26579;43.238;23.124;2023-07-24T09:27:27;97010.13;;;31.85;30.25
39411;BME280;26579;43.238;23.124;2023-07-24T09:29:55;97015.75;;;31.78;30.77
39411;BME280;26579;43.238;23.124;2023-07-24T09:32:26;97006.03;;;31.72;31.58
39411;BME280;26579;43.238;23.124;2023-07-24T09:34:53;97014.94;;;31.77;31.28
39411;BME280;26579;43.238;23.124;2023-07-24T09:37:37;96999.34;;;31.79;32.28
39411;BME280;26579;43.238;23.124;2023-07-24T09:40:06;97006.13;;;31.87;32.78
39411;BME280;26579;43.238;23.124;2023-07-24T09:42:34;96999.84;;;31.76;31.75
39411;BME280;26579;43.238;23.124;2023-07-24T09:45:01;97008.81;;;31.87;32.19
39411;BME280;26579;43.238;23.124;2023-07-24T09:47:27;97004.56;;;31.91;31.18
39411;BME280;26579;43.238;23.124;2023-07-24T09:49:52;97006.19;;;31.92;30.84
39411;BME280;26579;43.238;23.124;2023-07-24T09:52:19;96994.78;;;31.80;31.23
39411;BME280;26579;43.238;23.124;2023-07-24T09:57:28;96994.91;;;32.00;31.52
39411;BME280;26579;43.238;23.124;2023-07-24T09:59:56;96992.47;;;31.99;30.65
39411;BME280;26579;43.238;23.124;2023-07-24T10:02:22;96980.56;;;31.90;31.03
39411;BME280;26579;43.238;23.124;2023-07-24T10:04:49;96999.81;;;32.14;31.80
39411;BME280;26579;43.238;23.124;2023-07-24T10:07:14;96999.84;;;32.19;31.13
39411;BME280;26579;43.238;23.124;2023-07-24T10:09:42;96992.84;;;32.18;31.26
39411;BME280;26579;43.238;23.124;2023-07-24T10:12:09;96990.44;;;32.21;29.96
39411;BME280;26579;43.238;23.124;2023-07-24T10:14:35;96985.88;;;32.27;32.80
39411;BME280;26579;43.238;23.124;2023-07-24T10:17:02;96992.13;;;32.38;33.84
39411;BME280;26579;43.238;23.124;2023-07-24T10:19:41;96991.28;;;32.32;33.42
39411;BME280;26579;43.238;23.124;2023-07-24T10:22:07;96979.63;;;32.16;33.66
39411;BME280;26579;43.238;23.124;2023-07-24T10:24:33;96983.03;;;31.96;31.99
39411;BME280;26579;43.238;23.124;2023-07-24T10:26:59;96986.84;;;32.06;32.68
39411;BME280;26579;43.238;23.124;2023-07-24T10:29:25;96981.81;;;32.24;34.51
39411;BME280;26579;43.238;23.124;2023-07-24T10:31:53;96980.44;;;32.12;30.09
39411;BME280;26579;43.238;23.124;2023-07-24T10:34:19;96990.16;;;32.23;29.85
39411;BME280;26579;43.238;23.124;2023-07-24T10:36:45;96984.38;;;32.46;30.08
39411;BME280;26579;43.238;23.124;2023-07-24T10:39:15;96975.97;;;32.43;27.86
39411;BME280;26579;43.238;23.124;2023-07-24T10:41:41;96973.25;;;32.43;28.89
39411;BME280;26579;43.238;23.124;2023-07-24T10:44:07;96974.13;;;32.54;31.21
39411;BME280;26579;43.238;23.124;2023-07-24T10:46:37;96975.22;;;32.58;30.04
39411;BME280;26579;43.238;23.124;2023-07-24T10:49:03;96958.81;;;32.64;29.55
39411;BME280;26579;43.238;23.124;2023-07-24T10:51:30;96963.38;;;32.59;28.45
39411;BME280;26579;43.238;23.124;2023-07-24T10:53:55;96965.50;;;32.52;29.63
39411;BME280;26579;43.238;23.124;2023-07-24T10:56:21;96967.19;;;32.73;29.06
39411;BME280;26579;43.238;23.124;2023-07-24T10:58:47;96960.75;;;32.84;30.93
39411;BME280;26579;43.238;23.124;2023-07-24T11:01:12;96967.22;;;32.99;30.63
39411;BME280;26579;43.238;23.124;2023-07-24T11:03:40;96959.97;;;32.99;30.71
39411;BME280;26579;43.238;23.124;2023-07-24T11:06:12;96960.50;;;33.17;31.19
39411;BME280;26579;43.238;23.124;2023-07-24T11:08:38;96954.31;;;33.11;29.19
39411;BME280;26579;43.238;23.124;2023-07-24T11:11:03;96964.78;;;33.28;29.75
39411;BME280;26579;43.238;23.124;2023-07-24T11:13:29;96951.84;;;33.30;30.52
39411;BME280;26579;43.238;23.124;2023-07-24T11:15:55;96957.50;;;33.33;29.13
39411;BME280;26579;43.238;23.124;2023-07-24T11:18:21;96952.69;;;33.25;29.76
39411;BME280;26579;43.238;23.124;2023-07-24T11:20:53;96954.00;;;33.28;29.90
39411;BME280;26579;43.238;23.124;2023-07-24T11:23:19;96951.59;;;33.06;30.86
39411;BME280;26579;43.238;23.124;2023-07-24T11:25:46;96947.28;;;33.10;30.67
39411;BME280;26579;43.238;23.124;2023-07-24T11:28:13;96941.88;;;33.15;30.56
39411;BME280;26579;43.238;23.124;2023-07-24T11:30:40;96918.16;;;33.12;29.85
39411;BME280;26579;43.238;23.124;2023-07-24T11:33:08;96927.56;;;33.25;30.24
39411;BME280;26579;43.238;23.124;2023-07-24T11:35:35;96930.81;;;33.32;29.60
39411;BME280;26579;43.238;23.124;2023-07-24T11:38:03;96926.50;;;33.36;29.50
39411;BME280;26579;43.238;23.124;2023-07-24T11:40:43;96932.16;;;33.40;29.42
39411;BME280;26579;43.238;23.124;2023-07-24T11:43:17;96932.44;;;33.28;30.03
39411;BME280;26579;43.238;23.124;2023-07-24T11:45:44;96930.53;;;33.39;30.12
39411;BME280;26579;43.238;23.124;2023-07-24T11:48:11;96924.88;;;33.35;28.49
39411;BME280;26579;43.238;23.124;2023-07-24T11:50:47;96917.59;;;33.41;29.53
39411;BME280;26579;43.238;23.124;2023-07-24T11:53:20;96921.38;;;33.55;29.43
39411;BME280;26579;43.238;23.124;2023-07-24T11:55:47;96917.03;;;33.64;29.46
39411;BME280;26579;43.238;23.124;2023-07-24T11:58:15;96913.16;;;33.86;29.42
39411;BME280;26579;43.238;23.124;2023-07-24T12:00:41;96911.53;;;33.95;29.54
39411;BME280;26579;43.238;23.124;2023-07-24T12:03:07;96913.41;;;34.05;29.87
39411;BME280;26579;43.238;23.124;2023-07-24T12:05:42;96915.56;;;34.08;28.38
39411;BME280;26579;43.238;23.124;2023-07-24T12:08:08;96903.16;;;33.96;29.49
39411;BME280;26579;43.238;23.124;2023-07-24T12:10:38;96902.03;;;33.97;28.99
39411;BME280;26579;43.238;23.124;2023-07-24T12:13:04;96903.94;;;33.97;28.06
39411;BME280;26579;43.238;23.124;2023-07-24T12:15:31;96901.25;;;34.07;28.66
39411;BME280;26579;43.238;23.124;2023-07-24T12:17:56;96898.53;;;34.02;27.78
39411;BME280;26579;43.238;23.124;2023-07-24T12:20:23;96912.19;;;33.46;27.88
39411;BME280;26579;43.238;23.124;2023-07-24T12:22:49;96915.16;;;33.54;28.18
39411;BME280;26579;43.238;23.124;2023-07-24T12:25:15;96904.31;;;33.70;27.99
39411;BME280;26579;43.238;23.124;2023-07-24T12:27:41;96899.72;;;33.70;27.91
39411;BME280;26579;43.238;23.124;2023-07-24T12:30:07;96891.69;;;33.60;27.34
39411;BME280;26579;43.238;23.124;2023-07-24T12:32:33;96888.38;;;33.68;28.48
39411;BME280;26579;43.238;23.124;2023-07-24T12:34:59;96884.03;;;33.83;27.82
39411;BME280;26579;43.238;23.124;2023-07-24T12:37:24;96880.25;;;33.84;27.47
39411;BME280;26579;43.238;23.124;2023-07-24T12:39:50;96873.22;;;33.88;27.08
39411;BME280;26579;43.238;23.124;2023-07-24T12:42:16;96883.47;;;33.86;27.34
39411;BME280;26579;43.238;23.124;2023-07-24T12:44:42;96878.91;;;33.86;27.15
39411;BME280;26579;43.238;23.124;2023-07-24T12:47:08;96874.56;;;33.90;27.56
39411;BME280;26579;43.238;23.124;2023-07-24T12:49:34;96879.34;;;34.09;27.22
39411;BME280;26579;43.238;23.124;2023-07-24T12:51:59;96873.50;;;33.86;27.20
39411;BME280;26579;43.238;23.124;2023-07-24T12:54:25;96877.56;;;33.84;27.77
39411;BME280;26579;43.238;23.124;2023-07-24T12:56:51;96873.28;;;33.67;27.30
39411;BME280;26579;43.238;23.124;2023-07-24T12:59:18;96872.66;;;33.91;27.78